Arnsberg, Germany

12:13 PM CEST on September 16, 2014 (GMT +0200)
INORDRHE108 | Change Station
CLOSE
Current Station
Personal Weather Station
Location: Neheim, NORDRHEIN-WESTFALEN
Elevation: 728 ft
Nearby Weather Stations

Elev 728 ft 51.45 °N, 7.99 °E | Updated 7 seconds ago

Clear
Clear
67.8 °F
Feels Like 67.8 °F
N
2.0
Wind Variable Wind from SSW
Gusts 8.0 mph

Today
High -- | Low -- °F
--% Chance of Precip.
Yesterday
High -- | Low -- °F
Precip. -- in
7:04 AM 7:41 PM
Waning Gibbous, 47% visible
Pressure 30.01 in
Visibility -9999.0 miles
Clouds
Dew Point 61 °F
Humidity 80%
Rainfall 0.00 in
Snow Depth Not available.
UV Not available.
Pollen Not available.
Air Quality Not available.
Flu Activity Not available.
METAR EDLW 160950Z 35004KT 310V030 CAVOK 22/16 Q1016 RMK ATIS N

More Conditions Fewer Conditions

Pressure 30.01 in
Visibility -9999.0 miles
Clouds
Dew Point 61 °F
Humidity 80%
Rainfall 0.00 in
Snow Depth Not available.
UV Not available.
Pollen Not available.
Air Quality Not available.
Flu Activity Not available.
METAR EDLW 160950Z 35004KT 310V030 CAVOK 22/16 Q1016 RMK ATIS N

More Conditions Fewer Conditions

10-Day Weather Forecast

Almanac

Astronomy

Sep. 16, 2014 Rise Set
Actual Time 7:04 AM CEST 7:41 PM CEST
Civil Twilight 6:30 AM CEST 8:14 PM CEST
Nautical Twilight 5:50 AM CEST 8:54 PM CEST
Astronomical Twilight 5:08 AM CEST 9:36 PM CEST
Moon No Moon Rise 3:21 PM CEST
Length of Visible Light 13h 43m
Length of Day
12h 36m
Tomorrow will be 3m 53s shorter.
Waning Gibbous, 47% of the Moon is Illuminated
Today
Waning Gibbous
Sep 24
New
Oct 1
First Quarter
Oct 8
Full
Oct 15
Last Quarter

Yesterday's Extremes

Country Highs Country Lows

Community

WunderPhotos

Upload Photos

1,753,717 photos uploaded!

WunderBlogs® & News

Nearby

Snow Depth

Not available.

Earthquake Activity

City Distance Mag. Time & Date
No recent earthquake activity has been reported nearby.
Minimum magnitude displayed is 2.5.

Coastal Water Temperatures

Place Temperature
No Stations Reporting

Nearby Weather Stations